CNS weather

Cairns International Airport
Cairns, Queensland, Australia

Public forecast

Using degrees Celsius for public forecast. Weather courtesy of forecast.io.

METAR (pilot weather report)

Retrieved 2017/10/19 05:30 UTC (25 minutes ago):

YBCS 190530Z 16011KT 9999 VCSH FEW015 SCT025 BKN050 26/21 Q1012 INTER 0600/0800 3000 SHRA FEW008 BKN018 TEMPO 0800/0830 3000 SHRA FEW005 BKN018

TAF (pilot weather forecast)

Forecast is more than 12 hours old.

Retrieved 2017/10/18 12:00 UTC (18 hours ago):

TAF YBCS 181138Z 1812/1912 16008KT 9999 -SHRA SCT023 SCT040 FM190100 13010KT 9999 -SHRA FEW028 SCT050 FM190800 16008KT 9999 -SHRA SCT023 SCT040 INTER 1812/1818 3000 SHRA BKN018 TEMPO 1818/1824 3000 SHRA BKN018 INTER 1900/1912 3000 SHRA BKN018 PROB30 TEMPO 1812/1818 VRB15G25KT 2000 TSRA BKN010 FEW025CB